createdAt,value
2022-11-19T00:00:25.840Z,-7.14
2022-11-19T00:03:01.921Z,-7.21
2022-11-19T00:06:12.807Z,-7.27
2022-11-19T00:08:45.432Z,-7.33
2022-11-19T00:11:37.889Z,-7.40
2022-11-19T00:14:09.760Z,-7.44
2022-11-19T00:16:40.540Z,-7.46
2022-11-19T00:19:15.613Z,-7.50
2022-11-19T00:21:56.346Z,-7.50
2022-11-19T00:24:30.161Z,-7.48
2022-11-19T00:27:15.521Z,-7.49
2022-11-19T00:29:46.757Z,-7.42
2022-11-19T00:32:20.798Z,-7.31
2022-11-19T00:34:52.045Z,-7.33
2022-11-19T00:37:29.904Z,-7.36
2022-11-19T00:40:08.389Z,-7.43
2022-11-19T00:42:38.256Z,-7.47
2022-11-19T00:45:09.096Z,-7.43
2022-11-19T00:47:43.325Z,-7.42
2022-11-19T00:50:15.426Z,-7.48
2022-11-19T00:52:46.285Z,-7.50
2022-11-19T00:55:15.755Z,-7.43
2022-11-19T00:57:45.652Z,-7.37
2022-11-19T01:00:24.200Z,-7.26
2022-11-19T01:02:54.864Z,-7.12
2022-11-19T01:05:27.231Z,-6.99
2022-11-19T01:08:01.900Z,-7.08
2022-11-19T01:10:30.737Z,-7.17
2022-11-19T01:13:22.074Z,-7.16
2022-11-19T01:15:58.975Z,-7.03
2022-11-19T01:18:31.155Z,-7.12
2022-11-19T01:21:11.122Z,-7.10
2022-11-19T01:23:45.475Z,-7.09
2022-11-19T01:26:15.694Z,-7.00
2022-11-19T01:28:45.914Z,-6.98
2022-11-19T01:31:21.697Z,-6.93
2022-11-19T01:34:07.218Z,-6.92
2022-11-19T01:36:39.309Z,-6.86
2022-11-19T01:39:08.788Z,-6.79
2022-11-19T01:41:38.379Z,-6.87
2022-11-19T01:44:43.726Z,-6.86
2022-11-19T01:47:17.433Z,-6.83
2022-11-19T01:49:53.453Z,-6.61
2022-11-19T01:52:40.039Z,-6.54
2022-11-19T01:55:15.117Z,-6.47
2022-11-19T01:57:59.495Z,-6.42
2022-11-19T02:00:28.880Z,-6.34
2022-11-19T02:03:09.711Z,-6.19
2022-11-19T02:05:42.092Z,-6.06
2022-11-19T02:08:40.458Z,-5.92
2022-11-19T02:11:40.434Z,-5.78
2022-11-19T02:14:36.012Z,-5.66
2022-11-19T02:17:30.689Z,-5.57
2022-11-19T02:20:44.003Z,-5.43
2022-11-19T02:24:18.913Z,-5.27
2022-11-19T02:27:38.852Z,-5.14
2022-11-19T02:30:13.804Z,-5.02
2022-11-19T02:33:15.189Z,-4.88
2022-11-19T02:35:53.355Z,-4.76
2022-11-19T02:38:34.877Z,-4.65
2022-11-19T02:41:30.835Z,-4.52
2022-11-19T02:44:36.745Z,-4.56
2022-11-19T02:47:19.489Z,-4.41
2022-11-19T02:49:58.773Z,-4.31
2022-11-19T02:52:35.391Z,-4.50
2022-11-19T02:55:10.145Z,-4.75
2022-11-19T02:57:40.125Z,-4.83
2022-11-19T03:00:28.634Z,-4.89
2022-11-19T03:03:26.587Z,-4.86
2022-11-19T03:06:04.898Z,-4.77
2022-11-19T03:08:34.382Z,-4.66
2022-11-19T03:11:21.256Z,-4.50
2022-11-19T03:14:21.439Z,-4.32
2022-11-19T03:16:58.659Z,-4.10
2022-11-19T03:19:41.731Z,-3.98
2022-11-19T03:22:23.877Z,-3.84
2022-11-19T03:25:12.532Z,-3.62
2022-11-19T03:27:56.762Z,-3.52
2022-11-19T03:30:28.920Z,-3.42
2022-11-19T03:33:05.872Z,-3.33
2022-11-19T03:35:45.178Z,-3.27
2022-11-19T03:38:22.343Z,-3.17
2022-11-19T03:40:58.668Z,-3.03
2022-11-19T03:43:35.907Z,-3.02
2022-11-19T03:46:16.722Z,-3.06
2022-11-19T03:48:49.895Z,-3.14
2022-11-19T03:51:44.508Z,-3.00
2022-11-19T03:54:20.354Z,-2.96
2022-11-19T03:56:54.324Z,-2.94
2022-11-19T03:59:29.573Z,-2.76
2022-11-19T04:02:10.833Z,-2.74
2022-11-19T04:04:40.426Z,-2.73
2022-11-19T04:07:14.342Z,-2.71
2022-11-19T04:09:45.682Z,-2.60
2022-11-19T04:12:19.695Z,-2.35
2022-11-19T04:15:03.299Z,-1.93
2022-11-19T04:17:37.504Z,-1.55
2022-11-19T04:20:11.032Z,-1.50
2022-11-19T04:22:42.571Z,-1.37
2022-11-19T04:25:15.823Z,-1.27
2022-11-19T04:27:46.745Z,-1.14
2022-11-19T04:30:17.584Z,-1.00
2022-11-19T04:32:52.679Z,-0.90
2022-11-19T04:35:25.585Z,-0.83
2022-11-19T04:37:56.049Z,-0.84
2022-11-19T04:40:25.739Z,-0.82
2022-11-19T04:42:55.217Z,-0.83
2022-11-19T04:45:25.165Z,-0.80
2022-11-19T04:47:56.370Z,-0.73
2022-11-19T04:50:25.657Z,-0.63
2022-11-19T04:52:59.544Z,-0.37
2022-11-19T04:55:28.967Z,-0.58
2022-11-19T04:57:58.431Z,-0.85
2022-11-19T05:00:27.583Z,-0.86
2022-11-19T05:03:00.196Z,-0.85
2022-11-19T05:05:29.318Z,-0.72
2022-11-19T05:08:00.440Z,-0.69
2022-11-19T05:10:34.826Z,-0.73
2022-11-19T05:13:10.559Z,-0.74
2022-11-19T05:15:42.537Z,-0.81
2022-11-19T05:18:16.801Z,-0.73
2022-11-19T05:20:46.330Z,-0.75
2022-11-19T05:23:23.239Z,-0.73
2022-11-19T05:25:53.582Z,-0.74
2022-11-19T05:28:37.523Z,-0.73
2022-11-19T05:31:10.953Z,-0.76
2022-11-19T05:33:40.664Z,-0.80
2022-11-19T05:36:16.862Z,-0.88
2022-11-19T05:38:48.003Z,-0.87
2022-11-19T05:41:34.347Z,-0.72
2022-11-19T05:44:07.349Z,-0.52
2022-11-19T05:46:40.530Z,-0.28
2022-11-19T05:49:09.622Z,-0.06
2022-11-19T05:51:46.119Z,0.10
2022-11-19T05:54:21.808Z,0.40
2022-11-19T05:56:57.963Z,0.59
2022-11-19T05:59:29.044Z,0.73
2022-11-19T06:01:58.405Z,0.86
2022-11-19T06:04:28.905Z,0.92
2022-11-19T06:07:06.100Z,0.94
2022-11-19T06:09:37.239Z,0.96
2022-11-19T06:12:07.047Z,0.90
2022-11-19T06:14:37.130Z,0.93
2022-11-19T06:17:07.125Z,0.98
2022-11-19T06:19:35.976Z,1.12
2022-11-19T06:22:15.024Z,1.13
2022-11-19T06:24:45.974Z,1.05
2022-11-19T06:27:15.329Z,1.00
2022-11-19T06:29:52.222Z,0.88
2022-11-19T06:32:29.602Z,0.68
2022-11-19T06:35:01.805Z,0.60
2022-11-19T06:37:32.142Z,0.63
2022-11-19T06:40:07.301Z,0.57
2022-11-19T06:43:06.938Z,0.42
2022-11-19T06:45:39.638Z,0.42
2022-11-19T06:48:17.538Z,0.49
2022-11-19T06:50:50.737Z,0.42
2022-11-19T06:53:19.974Z,0.36
2022-11-19T06:55:56.119Z,0.40
2022-11-19T06:58:25.570Z,0.38
2022-11-19T07:00:55.106Z,0.38
2022-11-19T07:03:36.350Z,0.32
2022-11-19T07:06:07.252Z,0.30
2022-11-19T07:08:40.072Z,0.19
2022-11-19T07:11:29.345Z,0.21
2022-11-19T07:14:07.769Z,0.18
2022-11-19T07:16:44.574Z,0.12
2022-11-19T07:19:20.134Z,0.08
2022-11-19T07:21:52.864Z,0.10
2022-11-19T07:24:29.122Z,0.09
2022-11-19T07:26:59.353Z,0.24
2022-11-19T07:29:28.244Z,0.25
2022-11-19T07:32:05.327Z,0.30
2022-11-19T07:34:36.928Z,0.24
2022-11-19T07:37:06.293Z,0.35
2022-11-19T07:39:35.741Z,0.34
2022-11-19T07:42:27.529Z,0.36
2022-11-19T07:44:56.419Z,0.40
2022-11-19T07:47:25.695Z,0.43
2022-11-19T07:49:58.017Z,0.44
2022-11-19T07:52:40.991Z,0.42
2022-11-19T07:55:15.671Z,0.34
2022-11-19T07:57:46.249Z,0.40
2022-11-19T08:00:16.777Z,0.36
2022-11-19T08:02:45.802Z,0.26
2022-11-19T08:05:36.664Z,0.28
2022-11-19T08:08:12.667Z,0.42
2022-11-19T08:10:43.957Z,0.57
2022-11-19T08:13:21.997Z,0.72
2022-11-19T08:15:54.353Z,0.93
2022-11-19T08:18:25.031Z,1.25
2022-11-19T08:21:07.106Z,1.53
2022-11-19T08:23:39.353Z,1.86
2022-11-19T08:26:17.390Z,2.27
2022-11-19T08:28:47.532Z,2.45
2022-11-19T08:31:19.367Z,2.50
2022-11-19T08:33:49.780Z,2.46
2022-11-19T08:36:23.760Z,2.61
2022-11-19T08:38:56.500Z,2.54
2022-11-19T08:41:42.619Z,2.62
2022-11-19T08:44:13.384Z,2.67
2022-11-19T08:46:47.140Z,2.71
2022-11-19T08:49:16.336Z,2.78
2022-11-19T08:51:46.742Z,2.74
2022-11-19T08:54:29.773Z,2.90
2022-11-19T08:57:00.085Z,2.92
2022-11-19T08:59:37.309Z,3.14
2022-11-19T09:02:10.885Z,3.21
2022-11-19T09:04:41.936Z,3.36
2022-11-19T09:07:21.586Z,3.61
2022-11-19T09:09:50.736Z,3.78
2022-11-19T09:12:24.642Z,3.88
2022-11-19T09:14:56.223Z,4.35
2022-11-19T09:17:25.265Z,4.71
2022-11-19T09:19:54.095Z,4.73
2022-11-19T09:22:23.894Z,4.36
2022-11-19T09:24:56.586Z,4.10
2022-11-19T09:27:33.499Z,4.31
2022-11-19T09:30:04.459Z,4.43
2022-11-19T09:32:34.001Z,4.65
2022-11-19T09:35:11.255Z,4.61
2022-11-19T09:37:42.254Z,4.77
2022-11-19T09:40:20.075Z,4.76
2022-11-19T09:43:14.934Z,4.77
2022-11-19T09:46:37.954Z,4.61
2022-11-19T09:49:19.157Z,4.73
2022-11-19T09:51:59.745Z,4.69
2022-11-19T09:54:30.297Z,4.62
2022-11-19T09:57:14.718Z,4.92
2022-11-19T09:59:47.552Z,5.03
2022-11-19T10:02:24.882Z,4.94
2022-11-19T10:04:58.913Z,4.78
2022-11-19T10:08:46.772Z,4.55
2022-11-19T10:10:52.359Z,4.49
2022-11-19T10:13:54.883Z,4.39
2022-11-19T10:16:49.667Z,4.25
2022-11-19T10:19:48.085Z,4.30
2022-11-19T10:22:29.665Z,4.32
2022-11-19T10:25:17.064Z,4.06
2022-11-19T10:27:58.133Z,4.25
2022-11-19T10:30:32.564Z,4.30
2022-11-19T10:33:06.947Z,4.30
2022-11-19T10:35:44.576Z,4.27
2022-11-19T10:38:30.505Z,4.08
2022-11-19T10:41:11.513Z,4.29
2022-11-19T10:43:50.024Z,4.18
2022-11-19T10:46:24.271Z,4.11
2022-11-19T10:48:59.006Z,4.18
2022-11-19T10:51:41.600Z,4.16
2022-11-19T10:54:30.274Z,4.37
2022-11-19T10:57:05.706Z,4.27
2022-11-19T10:59:40.846Z,4.32
2022-11-19T11:02:42.612Z,4.52
2022-11-19T11:05:16.845Z,4.44
2022-11-19T11:07:56.694Z,4.41
2022-11-19T11:10:36.736Z,4.41
2022-11-19T11:14:16.768Z,4.31
2022-11-19T11:17:03.262Z,4.46
2022-11-19T11:20:02.037Z,4.34
2022-11-19T11:22:31.912Z,4.27
2022-11-19T11:25:22.416Z,4.36
2022-11-19T11:28:07.851Z,4.50
2022-11-19T11:30:37.738Z,4.57
2022-11-19T11:33:30.848Z,4.46
2022-11-19T11:36:04.409Z,4.29
2022-11-19T11:38:41.134Z,4.31
2022-11-19T11:44:17.822Z,3.88
2022-11-19T11:46:57.496Z,3.70
2022-11-19T11:49:33.339Z,3.49
2022-11-19T11:52:36.309Z,3.45
2022-11-19T11:55:17.613Z,3.44
2022-11-19T11:58:02.039Z,3.33
2022-11-19T12:00:40.266Z,3.49
2022-11-19T12:03:19.188Z,3.55
2022-11-19T12:06:10.322Z,3.45
2022-11-19T12:08:54.232Z,3.42
2022-11-19T12:11:54.526Z,3.27
2022-11-19T12:14:31.298Z,3.23
2022-11-19T12:17:23.420Z,3.17
2022-11-19T12:20:22.830Z,3.23
2022-11-19T12:23:29.009Z,3.16
2022-11-19T12:26:14.320Z,3.09
2022-11-19T12:29:13.320Z,3.10
2022-11-19T12:32:22.748Z,3.12
2022-11-19T12:35:33.956Z,3.02
2022-11-19T12:38:37.425Z,2.87
2022-11-19T12:41:34.039Z,2.75
2022-11-19T12:44:17.257Z,2.67
2022-11-19T12:47:27.672Z,2.48
2022-11-19T12:50:29.480Z,2.60
2022-11-19T12:53:38.532Z,2.56
2022-11-19T12:56:26.181Z,2.67
2022-11-19T12:59:15.559Z,2.58
2022-11-19T13:01:51.556Z,2.67
2022-11-19T13:04:29.871Z,2.59
2022-11-19T13:07:07.320Z,2.64
2022-11-19T13:09:44.468Z,2.61
2022-11-19T13:12:28.689Z,2.65
2022-11-19T13:15:12.465Z,2.65
2022-11-19T13:17:47.326Z,2.74
2022-11-19T13:20:28.924Z,2.78
2022-11-19T13:23:06.485Z,2.72
2022-11-19T13:25:42.067Z,2.74
2022-11-19T13:28:27.738Z,2.76
2022-11-19T13:31:06.191Z,2.88
2022-11-19T13:33:50.984Z,2.90
2022-11-19T13:36:33.921Z,3.10
2022-11-19T13:39:16.379Z,3.00
2022-11-19T13:42:12.844Z,3.06
2022-11-19T13:44:42.528Z,3.09
2022-11-19T13:47:21.783Z,3.17
2022-11-19T13:49:58.634Z,3.11
2022-11-19T13:52:42.064Z,3.27
2022-11-19T13:55:35.094Z,3.18
2022-11-19T13:58:39.521Z,3.22
2022-11-19T14:01:49.432Z,3.28
2022-11-19T14:04:57.652Z,3.26
2022-11-19T14:08:06.529Z,3.22
2022-11-19T14:10:45.936Z,3.27
2022-11-19T14:13:53.159Z,3.27
2022-11-19T14:16:56.516Z,3.19
2022-11-19T14:19:46.619Z,3.20
2022-11-19T14:22:54.963Z,3.22
2022-11-19T14:26:38.865Z,3.12
2022-11-19T14:29:07.907Z,3.13
2022-11-19T14:32:30.808Z,2.98
2022-11-19T14:35:39.152Z,2.99
2022-11-19T14:38:51.385Z,2.93
2022-11-19T14:41:35.176Z,2.88
2022-11-19T14:44:30.356Z,2.97
2022-11-19T14:47:37.255Z,2.93
2022-11-19T14:50:26.375Z,2.86
2022-11-19T14:52:59.354Z,2.96
2022-11-19T14:55:36.827Z,2.92
2022-11-19T14:58:45.460Z,2.98
2022-11-19T15:01:25.500Z,2.90
2022-11-19T15:04:07.145Z,2.96
2022-11-19T15:07:33.466Z,2.89
2022-11-19T15:15:06.583Z,2.89
2022-11-19T15:17:37.685Z,2.78
2022-11-19T15:20:47.757Z,2.85
2022-11-19T15:23:50.647Z,2.86
2022-11-19T15:27:45.253Z,2.82
2022-11-19T15:30:21.386Z,2.78
2022-11-19T15:33:34.519Z,2.70
2022-11-19T15:36:31.642Z,2.65
2022-11-19T15:39:15.298Z,2.71
2022-11-19T15:42:00.965Z,2.67
2022-11-19T15:44:44.110Z,2.64
2022-11-19T15:47:21.464Z,2.68
2022-11-19T15:49:56.210Z,2.65
2022-11-19T15:52:33.463Z,2.62
2022-11-19T15:55:28.668Z,2.53
2022-11-19T15:58:10.536Z,2.49
2022-11-19T16:00:47.714Z,2.46
2022-11-19T16:03:19.234Z,2.44
2022-11-19T16:06:05.664Z,2.40
2022-11-19T16:08:39.249Z,2.39
2022-11-19T16:11:26.037Z,2.47
2022-11-19T16:14:14.116Z,2.42
2022-11-19T16:17:04.047Z,2.41
2022-11-19T16:19:40.741Z,2.39
2022-11-19T16:22:09.639Z,2.34
2022-11-19T16:24:57.631Z,2.32
2022-11-19T16:27:31.082Z,2.36
2022-11-19T16:30:01.120Z,2.32
2022-11-19T16:32:30.370Z,2.29
2022-11-19T16:35:22.153Z,2.28
2022-11-19T16:37:54.696Z,2.30
2022-11-19T16:40:25.242Z,2.32
2022-11-19T16:42:56.462Z,2.31
2022-11-19T16:45:31.345Z,2.28
2022-11-19T16:48:05.427Z,2.31
2022-11-19T16:50:42.448Z,2.31
2022-11-19T16:53:34.523Z,2.30
2022-11-19T16:56:03.816Z,2.26
2022-11-19T16:58:33.583Z,2.39
2022-11-19T17:01:03.617Z,2.26
2022-11-19T17:03:41.526Z,2.21
2022-11-19T17:06:26.922Z,2.04
2022-11-19T17:09:09.938Z,1.88
2022-11-19T17:12:13.503Z,1.64
2022-11-19T17:15:02.195Z,1.32
2022-11-19T17:17:46.213Z,1.29
2022-11-19T17:21:10.822Z,1.09
2022-11-19T17:23:55.131Z,1.16
2022-11-19T17:26:28.149Z,1.09
2022-11-19T17:29:12.460Z,1.08
2022-11-19T17:31:49.334Z,1.07
2022-11-19T17:34:33.021Z,1.20
2022-11-19T17:37:02.269Z,1.26
2022-11-19T17:39:32.486Z,1.28
2022-11-19T17:42:25.537Z,1.32
2022-11-19T17:45:06.060Z,1.34
2022-11-19T17:47:47.529Z,1.34
2022-11-19T17:50:16.554Z,1.30
2022-11-19T17:52:49.359Z,1.39
2022-11-19T17:55:26.121Z,1.30
2022-11-19T17:57:55.074Z,1.26
2022-11-19T18:00:26.078Z,1.23
2022-11-19T18:03:03.272Z,1.20
2022-11-19T18:05:43.365Z,1.17
2022-11-19T18:08:12.452Z,1.09
2022-11-19T18:10:47.002Z,1.19
2022-11-19T18:13:36.919Z,1.15
2022-11-19T18:16:17.112Z,1.12
2022-11-19T18:18:49.825Z,1.06
2022-11-19T18:21:28.961Z,1.07
2022-11-19T18:23:57.851Z,1.03
2022-11-19T18:26:29.623Z,0.97
2022-11-19T18:28:58.820Z,0.96
2022-11-19T18:31:37.195Z,0.94
2022-11-19T18:34:17.220Z,0.90
2022-11-19T18:36:47.409Z,0.89
2022-11-19T18:39:16.267Z,0.94
2022-11-19T18:41:50.661Z,0.88
2022-11-19T18:44:37.671Z,0.79
2022-11-19T18:47:13.231Z,0.78
2022-11-19T18:49:43.189Z,0.78
2022-11-19T18:52:17.985Z,0.72
2022-11-19T18:54:47.377Z,0.71
2022-11-19T18:57:22.682Z,0.71
2022-11-19T18:59:51.565Z,0.73
2022-11-19T19:02:20.441Z,0.80
2022-11-19T19:04:51.187Z,0.84
2022-11-19T19:07:20.403Z,0.88
2022-11-19T19:09:49.635Z,1.02
2022-11-19T19:12:26.429Z,1.08
2022-11-19T19:15:01.545Z,1.20
2022-11-19T19:17:32.085Z,1.13
2022-11-19T19:20:04.150Z,1.08
2022-11-19T19:22:36.230Z,1.09
2022-11-19T19:25:17.941Z,1.05
2022-11-19T19:27:49.042Z,1.11
2022-11-19T19:30:23.932Z,1.08
2022-11-19T19:32:55.952Z,1.09
2022-11-19T19:35:24.943Z,1.24
2022-11-19T19:37:54.199Z,1.20
2022-11-19T19:40:28.848Z,1.28
2022-11-19T19:43:03.344Z,1.18
2022-11-19T19:45:35.734Z,1.23
2022-11-19T19:48:08.503Z,1.21
2022-11-19T19:50:58.694Z,1.19
2022-11-19T19:53:33.864Z,1.17
2022-11-19T19:56:08.826Z,1.09
2022-11-19T19:58:39.685Z,1.05
2022-11-19T20:01:15.551Z,0.95
2022-11-19T20:03:49.219Z,1.02
2022-11-19T20:06:23.496Z,0.98
2022-11-19T20:08:52.754Z,0.96
2022-11-19T20:11:27.326Z,0.81
2022-11-19T20:13:59.798Z,0.82
2022-11-19T20:16:33.600Z,0.82
2022-11-19T20:19:03.467Z,0.71
2022-11-19T20:21:36.488Z,0.79
2022-11-19T20:24:12.069Z,0.79
2022-11-19T20:26:45.314Z,0.80
2022-11-19T20:29:20.074Z,0.73
2022-11-19T20:31:51.854Z,0.66
2022-11-19T20:34:20.895Z,0.61
2022-11-19T20:36:50.419Z,0.53
2022-11-19T20:39:20.420Z,0.39
2022-11-19T20:42:13.327Z,0.30
2022-11-19T20:44:44.280Z,0.25
2022-11-19T20:47:15.551Z,0.22
2022-11-19T20:49:44.606Z,0.18
2022-11-19T20:52:13.749Z,0.16
2022-11-19T20:54:46.747Z,0.24
2022-11-19T20:57:16.760Z,0.24
2022-11-19T20:59:47.595Z,0.20
2022-11-19T21:02:16.613Z,0.17
2022-11-19T21:04:46.176Z,0.17
2022-11-19T21:07:18.725Z,0.18
2022-11-19T21:09:47.578Z,0.15
2022-11-19T21:12:16.637Z,0.11
2022-11-19T21:14:47.057Z,0.11
2022-11-19T21:17:15.799Z,0.08
2022-11-19T21:19:44.749Z,0.04
2022-11-19T21:22:13.507Z,0.02
2022-11-19T21:24:43.447Z,-0.01
2022-11-19T21:27:12.202Z,0.03
2022-11-19T21:29:41.764Z,0.02
2022-11-19T21:32:12.256Z,0.02
2022-11-19T21:34:42.423Z,0.03
2022-11-19T21:37:11.582Z,0.01
2022-11-19T21:39:40.503Z,0.01
2022-11-19T21:42:09.896Z,0.01
2022-11-19T21:44:38.795Z,0.04
2022-11-19T21:47:07.703Z,0.04
2022-11-19T21:49:37.798Z,0.06
2022-11-19T21:52:10.336Z,0.06
2022-11-19T21:54:39.289Z,0.08
2022-11-19T21:57:08.366Z,0.07
2022-11-19T21:59:45.453Z,0.08
2022-11-19T22:02:15.820Z,0.16
2022-11-19T22:04:47.930Z,0.17
2022-11-19T22:07:23.045Z,0.16
2022-11-19T22:09:53.841Z,0.16
2022-11-19T22:12:25.735Z,0.14
2022-11-19T22:14:54.752Z,0.15
2022-11-19T22:17:28.824Z,0.12
2022-11-19T22:20:02.254Z,0.11
2022-11-19T22:22:31.623Z,0.11
2022-11-19T22:25:00.663Z,0.12
2022-11-19T22:27:33.032Z,0.09
2022-11-19T22:30:05.890Z,0.14
2022-11-19T22:32:35.348Z,0.12
2022-11-19T22:35:06.994Z,0.11
2022-11-19T22:37:39.305Z,0.13
2022-11-19T22:40:10.182Z,0.14
2022-11-19T22:42:38.949Z,0.16
2022-11-19T22:45:08.910Z,0.17
2022-11-19T22:47:37.453Z,0.17
2022-11-19T22:50:11.820Z,0.12
2022-11-19T22:52:40.570Z,0.08
2022-11-19T22:55:11.431Z,0.06
2022-11-19T22:57:40.718Z,0.02
2022-11-19T23:00:36.201Z,0.04
2022-11-19T23:03:05.441Z,0.03
2022-11-19T23:05:37.354Z,0.03
2022-11-19T23:08:08.527Z,0.05
2022-11-19T23:10:37.880Z,0.09
2022-11-19T23:13:23.813Z,0.07
2022-11-19T23:16:09.761Z,0.09
2022-11-19T23:18:43.467Z,0.11
2022-11-19T23:21:17.656Z,0.11
2022-11-19T23:23:47.136Z,0.17
2022-11-19T23:26:23.390Z,0.19
2022-11-19T23:28:53.479Z,0.28
2022-11-19T23:31:25.617Z,0.30
2022-11-19T23:33:59.124Z,0.31
2022-11-19T23:36:32.409Z,0.37
2022-11-19T23:39:03.920Z,0.41
2022-11-19T23:41:38.226Z,0.39
2022-11-19T23:44:10.245Z,0.40
2022-11-19T23:46:39.511Z,0.57
2022-11-19T23:49:11.134Z,0.73
2022-11-19T23:51:41.809Z,0.74
2022-11-19T23:54:14.532Z,0.90
2022-11-19T23:56:43.941Z,0.95
2022-11-19T23:59:13.094Z,0.90
